sensor_id;sensor_type;location;lat;lon;timestamp;P1;durP1;ratioP1;P2;durP2;ratioP2
11425;SDS011;5769;47.998;7.788;2022-11-18T00:01:08;262.50;;;42.90;;
11425;SDS011;5769;47.998;7.788;2022-11-18T00:03:37;263.80;;;42.97;;
11425;SDS011;5769;47.998;7.788;2022-11-18T00:06:06;264.63;;;43.10;;
11425;SDS011;5769;47.998;7.788;2022-11-18T00:08:35;264.87;;;43.10;;
11425;SDS011;5769;47.998;7.788;2022-11-18T00:11:05;266.10;;;43.17;;
11425;SDS011;5769;47.998;7.788;2022-11-18T00:13:32;264.60;;;43.10;;
11425;SDS011;5769;47.998;7.788;2022-11-18T00:16:19;265.40;;;43.27;;
11425;SDS011;5769;47.998;7.788;2022-11-18T00:18:46;263.73;;;43.00;;
11425;SDS011;5769;47.998;7.788;2022-11-18T00:21:14;264.23;;;43.00;;
11425;SDS011;5769;47.998;7.788;2022-11-18T00:23:41;263.47;;;43.00;;
11425;SDS011;5769;47.998;7.788;2022-11-18T00:26:08;264.73;;;43.10;;
11425;SDS011;5769;47.998;7.788;2022-11-18T00:28:37;263.50;;;42.97;;
11425;SDS011;5769;47.998;7.788;2022-11-18T00:31:05;264.97;;;43.23;;
11425;SDS011;5769;47.998;7.788;2022-11-18T00:33:33;264.47;;;43.27;;
11425;SDS011;5769;47.998;7.788;2022-11-18T00:36:00;266.33;;;43.23;;
11425;SDS011;5769;47.998;7.788;2022-11-18T00:38:29;264.17;;;43.00;;
11425;SDS011;5769;47.998;7.788;2022-11-18T00:40:59;263.17;;;42.90;;
11425;SDS011;5769;47.998;7.788;2022-11-18T00:43:26;264.57;;;43.23;;
11425;SDS011;5769;47.998;7.788;2022-11-18T00:45:52;264.43;;;43.00;;
11425;SDS011;5769;47.998;7.788;2022-11-18T00:48:18;264.30;;;42.97;;
11425;SDS011;5769;47.998;7.788;2022-11-18T00:50:46;264.73;;;43.17;;
11425;SDS011;5769;47.998;7.788;2022-11-18T00:53:13;263.13;;;42.93;;
11425;SDS011;5769;47.998;7.788;2022-11-18T00:55:41;264.70;;;43.20;;
11425;SDS011;5769;47.998;7.788;2022-11-18T00:58:08;264.87;;;42.93;;
11425;SDS011;5769;47.998;7.788;2022-11-18T01:00:38;263.63;;;43.07;;
11425;SDS011;5769;47.998;7.788;2022-11-18T01:03:05;263.50;;;42.83;;
11425;SDS011;5769;47.998;7.788;2022-11-18T01:05:31;263.63;;;43.07;;
11425;SDS011;5769;47.998;7.788;2022-11-18T01:07:58;263.17;;;42.90;;
11425;SDS011;5769;47.998;7.788;2022-11-18T01:10:25;262.17;;;43.00;;
11425;SDS011;5769;47.998;7.788;2022-11-18T01:12:53;261.83;;;42.63;;
11425;SDS011;5769;47.998;7.788;2022-11-18T01:15:37;263.03;;;43.00;;
11425;SDS011;5769;47.998;7.788;2022-11-18T01:18:04;262.73;;;43.13;;
11425;SDS011;5769;47.998;7.788;2022-11-18T01:20:32;262.53;;;42.80;;
11425;SDS011;5769;47.998;7.788;2022-11-18T01:22:59;262.17;;;43.00;;
11425;SDS011;5769;47.998;7.788;2022-11-18T01:25:25;263.33;;;43.07;;
11425;SDS011;5769;47.998;7.788;2022-11-18T01:27:54;263.33;;;43.07;;
11425;SDS011;5769;47.998;7.788;2022-11-18T01:30:21;263.53;;;43.00;;
11425;SDS011;5769;47.998;7.788;2022-11-18T01:32:51;264.50;;;43.17;;
11425;SDS011;5769;47.998;7.788;2022-11-18T01:35:18;263.50;;;43.20;;
11425;SDS011;5769;47.998;7.788;2022-11-18T01:37:45;262.17;;;42.90;;
11425;SDS011;5769;47.998;7.788;2022-11-18T01:40:11;261.37;;;42.90;;
11425;SDS011;5769;47.998;7.788;2022-11-18T01:42:38;262.07;;;43.00;;
11425;SDS011;5769;47.998;7.788;2022-11-18T01:45:13;263.43;;;43.27;;
11425;SDS011;5769;47.998;7.788;2022-11-18T01:47:46;262.93;;;43.00;;
11425;SDS011;5769;47.998;7.788;2022-11-18T01:50:15;263.00;;;43.03;;
11425;SDS011;5769;47.998;7.788;2022-11-18T01:52:44;261.97;;;42.93;;
11425;SDS011;5769;47.998;7.788;2022-11-18T01:55:13;263.10;;;43.07;;
11425;SDS011;5769;47.998;7.788;2022-11-18T01:57:43;263.43;;;43.20;;
11425;SDS011;5769;47.998;7.788;2022-11-18T02:00:14;264.03;;;43.17;;
11425;SDS011;5769;47.998;7.788;2022-11-18T02:02:41;262.33;;;42.93;;
11425;SDS011;5769;47.998;7.788;2022-11-18T02:05:08;263.33;;;43.10;;
11425;SDS011;5769;47.998;7.788;2022-11-18T02:07:38;263.13;;;43.10;;
11425;SDS011;5769;47.998;7.788;2022-11-18T02:10:07;263.83;;;43.23;;
11425;SDS011;5769;47.998;7.788;2022-11-18T02:12:46;263.47;;;43.07;;
11425;SDS011;5769;47.998;7.788;2022-11-18T02:15:15;263.50;;;43.10;;
11425;SDS011;5769;47.998;7.788;2022-11-18T02:17:44;262.67;;;43.23;;
11425;SDS011;5769;47.998;7.788;2022-11-18T02:20:22;262.33;;;42.97;;
11425;SDS011;5769;47.998;7.788;2022-11-18T02:26:09;263.17;;;43.00;;
11425;SDS011;5769;47.998;7.788;2022-11-18T02:28:58;260.97;;;42.80;;
11425;SDS011;5769;47.998;7.788;2022-11-18T02:31:30;264.40;;;43.07;;
11425;SDS011;5769;47.998;7.788;2022-11-18T02:34:00;263.73;;;43.23;;
11425;SDS011;5769;47.998;7.788;2022-11-18T02:36:35;261.80;;;42.93;;
11425;SDS011;5769;47.998;7.788;2022-11-18T02:39:08;262.53;;;42.97;;
11425;SDS011;5769;47.998;7.788;2022-11-18T02:41:40;263.80;;;43.17;;
11425;SDS011;5769;47.998;7.788;2022-11-18T02:44:11;263.07;;;43.17;;
11425;SDS011;5769;47.998;7.788;2022-11-18T02:46:40;260.53;;;43.00;;
11425;SDS011;5769;47.998;7.788;2022-11-18T02:49:19;261.60;;;42.97;;
11425;SDS011;5769;47.998;7.788;2022-11-18T02:51:50;261.63;;;43.10;;
11425;SDS011;5769;47.998;7.788;2022-11-18T02:54:19;261.67;;;43.17;;
11425;SDS011;5769;47.998;7.788;2022-11-18T02:56:47;262.70;;;43.00;;
11425;SDS011;5769;47.998;7.788;2022-11-18T02:59:17;261.97;;;43.07;;
11425;SDS011;5769;47.998;7.788;2022-11-18T03:01:44;259.70;;;42.63;;
11425;SDS011;5769;47.998;7.788;2022-11-18T03:04:11;262.70;;;43.00;;
11425;SDS011;5769;47.998;7.788;2022-11-18T03:06:40;261.63;;;43.00;;
11425;SDS011;5769;47.998;7.788;2022-11-18T03:09:11;262.27;;;43.20;;
11425;SDS011;5769;47.998;7.788;2022-11-18T03:11:44;262.17;;;43.13;;
11425;SDS011;5769;47.998;7.788;2022-11-18T03:14:20;261.40;;;43.23;;
11425;SDS011;5769;47.998;7.788;2022-11-18T03:16:55;262.00;;;43.10;;
11425;SDS011;5769;47.998;7.788;2022-11-18T03:19:28;261.63;;;43.03;;
11425;SDS011;5769;47.998;7.788;2022-11-18T03:22:08;262.20;;;43.13;;
11425;SDS011;5769;47.998;7.788;2022-11-18T03:24:39;263.20;;;43.20;;
11425;SDS011;5769;47.998;7.788;2022-11-18T03:27:09;262.77;;;43.10;;
11425;SDS011;5769;47.998;7.788;2022-11-18T03:29:42;262.03;;;43.07;;
11425;SDS011;5769;47.998;7.788;2022-11-18T03:32:15;262.27;;;43.00;;
11425;SDS011;5769;47.998;7.788;2022-11-18T03:34:45;263.53;;;43.30;;
11425;SDS011;5769;47.998;7.788;2022-11-18T03:37:15;261.40;;;43.30;;
11425;SDS011;5769;47.998;7.788;2022-11-18T03:39:45;258.13;;;43.37;;
11425;SDS011;5769;47.998;7.788;2022-11-18T03:42:14;262.17;;;43.30;;
11425;SDS011;5769;47.998;7.788;2022-11-18T03:44:51;262.00;;;43.77;;
11425;SDS011;5769;47.998;7.788;2022-11-18T03:47:24;256.27;;;43.40;;
11425;SDS011;5769;47.998;7.788;2022-11-18T03:49:55;257.50;;;43.57;;
11425;SDS011;5769;47.998;7.788;2022-11-18T03:52:26;262.83;;;43.53;;
11425;SDS011;5769;47.998;7.788;2022-11-18T03:54:56;260.10;;;43.20;;
11425;SDS011;5769;47.998;7.788;2022-11-18T03:57:26;260.00;;;43.40;;
11425;SDS011;5769;47.998;7.788;2022-11-18T04:00:03;260.87;;;43.57;;
11425;SDS011;5769;47.998;7.788;2022-11-18T04:02:33;259.63;;;43.60;;
11425;SDS011;5769;47.998;7.788;2022-11-18T04:05:01;256.27;;;43.63;;
11425;SDS011;5769;47.998;7.788;2022-11-18T04:07:30;247.10;;;43.10;;
11425;SDS011;5769;47.998;7.788;2022-11-18T04:10:02;257.93;;;43.23;;
11425;SDS011;5769;47.998;7.788;2022-11-18T04:12:35;259.77;;;43.47;;
11425;SDS011;5769;47.998;7.788;2022-11-18T04:15:08;261.90;;;43.10;;
11425;SDS011;5769;47.998;7.788;2022-11-18T04:17:36;260.67;;;43.20;;
11425;SDS011;5769;47.998;7.788;2022-11-18T04:20:05;260.23;;;42.80;;
11425;SDS011;5769;47.998;7.788;2022-11-18T04:22:34;262.50;;;43.00;;
11425;SDS011;5769;47.998;7.788;2022-11-18T04:25:01;262.57;;;43.17;;
11425;SDS011;5769;47.998;7.788;2022-11-18T04:27:27;262.30;;;43.30;;
11425;SDS011;5769;47.998;7.788;2022-11-18T04:29:54;261.90;;;42.80;;
11425;SDS011;5769;47.998;7.788;2022-11-18T04:32:22;262.63;;;42.90;;
11425;SDS011;5769;47.998;7.788;2022-11-18T04:34:49;262.87;;;43.07;;
11425;SDS011;5769;47.998;7.788;2022-11-18T04:37:16;262.03;;;43.13;;
11425;SDS011;5769;47.998;7.788;2022-11-18T04:39:42;261.43;;;43.10;;
11425;SDS011;5769;47.998;7.788;2022-11-18T04:42:09;262.47;;;43.37;;
11425;SDS011;5769;47.998;7.788;2022-11-18T04:44:36;261.83;;;43.00;;
11425;SDS011;5769;47.998;7.788;2022-11-18T04:47:03;260.50;;;42.87;;
11425;SDS011;5769;47.998;7.788;2022-11-18T04:49:32;262.23;;;43.03;;
11425;SDS011;5769;47.998;7.788;2022-11-18T04:52:00;261.33;;;43.17;;
11425;SDS011;5769;47.998;7.788;2022-11-18T04:54:27;262.17;;;43.53;;
11425;SDS011;5769;47.998;7.788;2022-11-18T04:56:54;260.33;;;43.23;;
11425;SDS011;5769;47.998;7.788;2022-11-18T04:59:22;259.30;;;43.40;;
11425;SDS011;5769;47.998;7.788;2022-11-18T05:01:50;259.60;;;43.10;;
11425;SDS011;5769;47.998;7.788;2022-11-18T05:04:18;260.93;;;43.40;;
11425;SDS011;5769;47.998;7.788;2022-11-18T05:06:47;255.67;;;43.67;;
11425;SDS011;5769;47.998;7.788;2022-11-18T05:09:14;263.67;;;43.17;;
11425;SDS011;5769;47.998;7.788;2022-11-18T05:11:41;261.87;;;43.10;;
11425;SDS011;5769;47.998;7.788;2022-11-18T05:14:25;261.13;;;43.23;;
11425;SDS011;5769;47.998;7.788;2022-11-18T05:16:53;260.90;;;42.80;;
11425;SDS011;5769;47.998;7.788;2022-11-18T05:19:20;260.23;;;43.00;;
11425;SDS011;5769;47.998;7.788;2022-11-18T05:21:48;259.57;;;42.97;;
11425;SDS011;5769;47.998;7.788;2022-11-18T05:24:15;259.83;;;42.90;;
11425;SDS011;5769;47.998;7.788;2022-11-18T05:26:42;262.33;;;43.23;;
11425;SDS011;5769;47.998;7.788;2022-11-18T05:29:09;261.27;;;42.77;;
11425;SDS011;5769;47.998;7.788;2022-11-18T05:31:36;260.77;;;42.70;;
11425;SDS011;5769;47.998;7.788;2022-11-18T05:34:02;263.20;;;43.10;;
11425;SDS011;5769;47.998;7.788;2022-11-18T05:36:29;262.80;;;43.00;;
11425;SDS011;5769;47.998;7.788;2022-11-18T05:38:58;263.00;;;43.20;;
11425;SDS011;5769;47.998;7.788;2022-11-18T05:41:25;264.67;;;43.30;;
11425;SDS011;5769;47.998;7.788;2022-11-18T05:44:09;261.27;;;42.87;;
11425;SDS011;5769;47.998;7.788;2022-11-18T05:46:36;262.13;;;42.90;;
11425;SDS011;5769;47.998;7.788;2022-11-18T05:49:03;262.40;;;43.03;;
11425;SDS011;5769;47.998;7.788;2022-11-18T05:51:29;261.00;;;42.90;;
11425;SDS011;5769;47.998;7.788;2022-11-18T05:53:56;262.70;;;42.93;;
11425;SDS011;5769;47.998;7.788;2022-11-18T05:56:26;261.70;;;43.03;;
11425;SDS011;5769;47.998;7.788;2022-11-18T05:58:54;261.23;;;42.93;;
11425;SDS011;5769;47.998;7.788;2022-11-18T06:01:22;261.97;;;42.93;;
11425;SDS011;5769;47.998;7.788;2022-11-18T06:03:52;262.27;;;42.77;;
11425;SDS011;5769;47.998;7.788;2022-11-18T06:06:19;261.93;;;42.77;;
11425;SDS011;5769;47.998;7.788;2022-11-18T06:08:49;261.47;;;43.23;;
11425;SDS011;5769;47.998;7.788;2022-11-18T06:11:20;261.33;;;43.10;;
11425;SDS011;5769;47.998;7.788;2022-11-18T06:13:49;262.47;;;43.07;;
11425;SDS011;5769;47.998;7.788;2022-11-18T06:16:20;261.77;;;42.93;;
11425;SDS011;5769;47.998;7.788;2022-11-18T06:18:52;263.73;;;43.10;;
11425;SDS011;5769;47.998;7.788;2022-11-18T06:21:18;263.23;;;43.07;;
11425;SDS011;5769;47.998;7.788;2022-11-18T06:23:46;262.27;;;42.87;;
11425;SDS011;5769;47.998;7.788;2022-11-18T06:26:12;260.73;;;42.90;;
11425;SDS011;5769;47.998;7.788;2022-11-18T06:28:41;262.37;;;43.03;;
11425;SDS011;5769;47.998;7.788;2022-11-18T06:31:11;262.23;;;43.00;;
11425;SDS011;5769;47.998;7.788;2022-11-18T06:33:37;262.17;;;43.00;;
11425;SDS011;5769;47.998;7.788;2022-11-18T06:36:04;261.40;;;42.77;;
11425;SDS011;5769;47.998;7.788;2022-11-18T06:38:31;261.87;;;43.03;;
11425;SDS011;5769;47.998;7.788;2022-11-18T06:40:58;261.10;;;42.87;;
11425;SDS011;5769;47.998;7.788;2022-11-18T06:43:25;261.27;;;43.17;;
11425;SDS011;5769;47.998;7.788;2022-11-18T06:46:06;261.33;;;43.07;;
11425;SDS011;5769;47.998;7.788;2022-11-18T06:48:53;261.23;;;43.03;;
11425;SDS011;5769;47.998;7.788;2022-11-18T06:51:20;262.00;;;43.23;;
11425;SDS011;5769;47.998;7.788;2022-11-18T06:53:47;262.40;;;43.17;;
11425;SDS011;5769;47.998;7.788;2022-11-18T06:56:14;262.37;;;43.13;;
11425;SDS011;5769;47.998;7.788;2022-11-18T06:58:41;261.90;;;43.27;;
11425;SDS011;5769;47.998;7.788;2022-11-18T07:01:09;261.57;;;43.07;;
11425;SDS011;5769;47.998;7.788;2022-11-18T07:03:37;264.57;;;43.27;;
11425;SDS011;5769;47.998;7.788;2022-11-18T07:06:05;261.70;;;42.97;;
11425;SDS011;5769;47.998;7.788;2022-11-18T07:08:33;263.00;;;43.27;;
11425;SDS011;5769;47.998;7.788;2022-11-18T07:11:00;262.20;;;42.80;;
11425;SDS011;5769;47.998;7.788;2022-11-18T07:13:29;261.40;;;42.80;;
11425;SDS011;5769;47.998;7.788;2022-11-18T07:16:00;261.23;;;43.00;;
11425;SDS011;5769;47.998;7.788;2022-11-18T07:18:28;261.10;;;43.40;;
11425;SDS011;5769;47.998;7.788;2022-11-18T07:20:55;263.43;;;43.27;;
11425;SDS011;5769;47.998;7.788;2022-11-18T07:23:23;261.83;;;42.93;;
11425;SDS011;5769;47.998;7.788;2022-11-18T07:25:53;260.97;;;42.80;;
11425;SDS011;5769;47.998;7.788;2022-11-18T07:28:19;261.40;;;42.80;;
11425;SDS011;5769;47.998;7.788;2022-11-18T07:30:46;262.90;;;43.23;;
11425;SDS011;5769;47.998;7.788;2022-11-18T07:33:13;262.40;;;42.97;;
11425;SDS011;5769;47.998;7.788;2022-11-18T07:35:40;261.80;;;42.93;;
11425;SDS011;5769;47.998;7.788;2022-11-18T07:38:07;263.80;;;43.20;;
11425;SDS011;5769;47.998;7.788;2022-11-18T07:40:35;262.43;;;43.20;;
11425;SDS011;5769;47.998;7.788;2022-11-18T07:43:02;262.50;;;43.07;;
11425;SDS011;5769;47.998;7.788;2022-11-18T07:45:28;262.40;;;42.80;;
11425;SDS011;5769;47.998;7.788;2022-11-18T07:47:55;263.70;;;42.90;;
11425;SDS011;5769;47.998;7.788;2022-11-18T07:50:22;261.43;;;42.67;;
11425;SDS011;5769;47.998;7.788;2022-11-18T07:52:48;261.90;;;42.90;;
11425;SDS011;5769;47.998;7.788;2022-11-18T07:55:15;261.30;;;42.90;;
11425;SDS011;5769;47.998;7.788;2022-11-18T07:57:43;264.70;;;43.10;;
11425;SDS011;5769;47.998;7.788;2022-11-18T08:00:10;260.87;;;43.33;;
11425;SDS011;5769;47.998;7.788;2022-11-18T08:02:37;260.63;;;43.23;;
11425;SDS011;5769;47.998;7.788;2022-11-18T08:05:04;262.33;;;43.17;;
11425;SDS011;5769;47.998;7.788;2022-11-18T08:07:31;263.20;;;43.13;;
11425;SDS011;5769;47.998;7.788;2022-11-18T08:09:58;264.03;;;43.23;;
11425;SDS011;5769;47.998;7.788;2022-11-18T08:12:27;264.57;;;43.20;;
11425;SDS011;5769;47.998;7.788;2022-11-18T08:14:56;262.57;;;43.00;;
11425;SDS011;5769;47.998;7.788;2022-11-18T08:17:23;262.47;;;42.90;;
11425;SDS011;5769;47.998;7.788;2022-11-18T08:19:49;262.70;;;43.07;;
11425;SDS011;5769;47.998;7.788;2022-11-18T08:22:16;262.60;;;43.07;;
11425;SDS011;5769;47.998;7.788;2022-11-18T08:24:44;262.53;;;42.90;;
11425;SDS011;5769;47.998;7.788;2022-11-18T08:27:11;262.17;;;42.97;;
11425;SDS011;5769;47.998;7.788;2022-11-18T08:29:38;263.63;;;43.20;;
11425;SDS011;5769;47.998;7.788;2022-11-18T08:32:06;265.13;;;43.30;;
11425;SDS011;5769;47.998;7.788;2022-11-18T08:34:33;261.73;;;42.93;;
11425;SDS011;5769;47.998;7.788;2022-11-18T08:37:00;262.97;;;43.20;;
11425;SDS011;5769;47.998;7.788;2022-11-18T08:39:26;262.87;;;43.00;;
11425;SDS011;5769;47.998;7.788;2022-11-18T08:41:53;262.33;;;43.10;;
11425;SDS011;5769;47.998;7.788;2022-11-18T08:44:23;262.00;;;42.80;;
11425;SDS011;5769;47.998;7.788;2022-11-18T08:46:49;262.73;;;42.80;;
11425;SDS011;5769;47.998;7.788;2022-11-18T08:49:17;263.43;;;43.13;;
11425;SDS011;5769;47.998;7.788;2022-11-18T08:51:44;263.83;;;43.10;;
11425;SDS011;5769;47.998;7.788;2022-11-18T08:54:11;263.20;;;42.90;;
11425;SDS011;5769;47.998;7.788;2022-11-18T08:56:37;263.63;;;43.13;;
11425;SDS011;5769;47.998;7.788;2022-11-18T08:59:04;263.47;;;43.13;;
11425;SDS011;5769;47.998;7.788;2022-11-18T09:01:31;262.40;;;42.93;;
11425;SDS011;5769;47.998;7.788;2022-11-18T09:03:58;263.17;;;43.10;;
11425;SDS011;5769;47.998;7.788;2022-11-18T09:06:26;261.63;;;42.83;;
11425;SDS011;5769;47.998;7.788;2022-11-18T09:08:52;262.07;;;42.83;;
11425;SDS011;5769;47.998;7.788;2022-11-18T09:11:20;263.00;;;43.03;;
11425;SDS011;5769;47.998;7.788;2022-11-18T09:13:50;262.87;;;43.13;;
11425;SDS011;5769;47.998;7.788;2022-11-18T09:16:18;264.67;;;43.27;;
11425;SDS011;5769;47.998;7.788;2022-11-18T09:18:47;263.80;;;43.20;;
11425;SDS011;5769;47.998;7.788;2022-11-18T09:21:14;265.53;;;43.20;;
11425;SDS011;5769;47.998;7.788;2022-11-18T09:23:42;262.40;;;42.90;;
11425;SDS011;5769;47.998;7.788;2022-11-18T09:26:10;262.90;;;43.03;;
11425;SDS011;5769;47.998;7.788;2022-11-18T09:28:37;264.03;;;43.10;;
11425;SDS011;5769;47.998;7.788;2022-11-18T09:31:05;263.27;;;42.80;;
11425;SDS011;5769;47.998;7.788;2022-11-18T09:33:32;263.10;;;43.20;;
11425;SDS011;5769;47.998;7.788;2022-11-18T09:35:59;263.53;;;43.00;;
11425;SDS011;5769;47.998;7.788;2022-11-18T09:38:27;264.57;;;43.23;;
11425;SDS011;5769;47.998;7.788;2022-11-18T09:40:58;262.53;;;43.00;;
11425;SDS011;5769;47.998;7.788;2022-11-18T09:43:34;263.73;;;42.97;;
11425;SDS011;5769;47.998;7.788;2022-11-18T09:46:11;263.17;;;43.00;;
11425;SDS011;5769;47.998;7.788;2022-11-18T09:48:48;263.17;;;43.10;;
11425;SDS011;5769;47.998;7.788;2022-11-18T09:51:33;262.67;;;43.00;;
11425;SDS011;5769;47.998;7.788;2022-11-18T09:54:06;262.47;;;42.93;;
11425;SDS011;5769;47.998;7.788;2022-11-18T09:56:36;264.03;;;43.10;;
11425;SDS011;5769;47.998;7.788;2022-11-18T09:59:04;262.30;;;43.07;;
11425;SDS011;5769;47.998;7.788;2022-11-18T10:01:31;262.50;;;43.07;;
11425;SDS011;5769;47.998;7.788;2022-11-18T10:03:58;263.90;;;43.13;;
11425;SDS011;5769;47.998;7.788;2022-11-18T10:06:25;264.00;;;43.37;;
11425;SDS011;5769;47.998;7.788;2022-11-18T10:11:48;263.87;;;43.13;;
11425;SDS011;5769;47.998;7.788;2022-11-18T10:14:29;262.90;;;42.93;;
11425;SDS011;5769;47.998;7.788;2022-11-18T10:17:09;262.87;;;43.03;;
11425;SDS011;5769;47.998;7.788;2022-11-18T10:19:56;261.50;;;43.07;;
11425;SDS011;5769;47.998;7.788;2022-11-18T10:22:37;263.87;;;43.10;;
11425;SDS011;5769;47.998;7.788;2022-11-18T10:25:09;262.13;;;43.07;;
11425;SDS011;5769;47.998;7.788;2022-11-18T10:27:40;262.00;;;42.90;;
11425;SDS011;5769;47.998;7.788;2022-11-18T10:30:10;262.00;;;43.00;;
11425;SDS011;5769;47.998;7.788;2022-11-18T10:32:51;262.57;;;43.17;;
11425;SDS011;5769;47.998;7.788;2022-11-18T10:35:24;262.23;;;43.07;;
11425;SDS011;5769;47.998;7.788;2022-11-18T10:37:58;262.57;;;43.17;;
11425;SDS011;5769;47.998;7.788;2022-11-18T10:40:27;261.77;;;43.00;;
11425;SDS011;5769;47.998;7.788;2022-11-18T10:42:56;262.20;;;43.43;;
11425;SDS011;5769;47.998;7.788;2022-11-18T10:45:24;261.93;;;43.43;;
11425;SDS011;5769;47.998;7.788;2022-11-18T10:47:59;260.67;;;43.03;;
11425;SDS011;5769;47.998;7.788;2022-11-18T10:50:32;261.27;;;43.43;;
11425;SDS011;5769;47.998;7.788;2022-11-18T10:53:00;259.97;;;43.20;;
11425;SDS011;5769;47.998;7.788;2022-11-18T10:55:28;260.80;;;43.43;;
11425;SDS011;5769;47.998;7.788;2022-11-18T10:57:58;260.50;;;43.43;;
11425;SDS011;5769;47.998;7.788;2022-11-18T11:00:31;260.90;;;43.53;;
11425;SDS011;5769;47.998;7.788;2022-11-18T11:03:22;260.07;;;43.43;;
11425;SDS011;5769;47.998;7.788;2022-11-18T11:08:45;262.10;;;43.77;;
11425;SDS011;5769;47.998;7.788;2022-11-18T11:11:17;259.80;;;43.40;;
11425;SDS011;5769;47.998;7.788;2022-11-18T11:13:52;258.70;;;43.20;;
11425;SDS011;5769;47.998;7.788;2022-11-18T11:16:27;260.33;;;43.63;;
11425;SDS011;5769;47.998;7.788;2022-11-18T11:18:57;259.53;;;43.40;;
11425;SDS011;5769;47.998;7.788;2022-11-18T11:21:27;260.27;;;43.47;;
11425;SDS011;5769;47.998;7.788;2022-11-18T11:23:55;261.27;;;43.60;;
11425;SDS011;5769;47.998;7.788;2022-11-18T11:26:25;259.83;;;43.30;;
11425;SDS011;5769;47.998;7.788;2022-11-18T11:29:01;261.33;;;43.60;;
11425;SDS011;5769;47.998;7.788;2022-11-18T11:31:34;260.00;;;43.20;;
11425;SDS011;5769;47.998;7.788;2022-11-18T11:34:10;260.83;;;43.40;;
11425;SDS011;5769;47.998;7.788;2022-11-18T11:36:51;260.10;;;43.30;;
11425;SDS011;5769;47.998;7.788;2022-11-18T11:39:30;260.47;;;43.50;;
11425;SDS011;5769;47.998;7.788;2022-11-18T11:42:09;260.77;;;43.27;;
11425;SDS011;5769;47.998;7.788;2022-11-18T11:44:51;260.87;;;43.27;;
11425;SDS011;5769;47.998;7.788;2022-11-18T11:47:28;263.10;;;43.43;;
11425;SDS011;5769;47.998;7.788;2022-11-18T11:50:17;259.97;;;43.30;;
11425;SDS011;5769;47.998;7.788;2022-11-18T11:52:51;260.10;;;43.30;;
11425;SDS011;5769;47.998;7.788;2022-11-18T11:55:36;260.60;;;43.57;;
11425;SDS011;5769;47.998;7.788;2022-11-18T11:58:15;263.13;;;43.43;;
11425;SDS011;5769;47.998;7.788;2022-11-18T12:00:57;260.70;;;43.33;;
11425;SDS011;5769;47.998;7.788;2022-11-18T12:03:38;260.50;;;43.23;;
11425;SDS011;5769;47.998;7.788;2022-11-18T12:06:10;261.93;;;43.40;;
11425;SDS011;5769;47.998;7.788;2022-11-18T12:08:38;261.07;;;43.30;;
11425;SDS011;5769;47.998;7.788;2022-11-18T12:11:15;261.13;;;43.40;;
11425;SDS011;5769;47.998;7.788;2022-11-18T12:13:52;260.10;;;43.40;;
11425;SDS011;5769;47.998;7.788;2022-11-18T12:16:26;262.00;;;43.67;;
11425;SDS011;5769;47.998;7.788;2022-11-18T12:19:00;259.87;;;43.37;;
11425;SDS011;5769;47.998;7.788;2022-11-18T12:24:31;259.90;;;43.43;;
11425;SDS011;5769;47.998;7.788;2022-11-18T12:27:00;261.37;;;43.50;;
11425;SDS011;5769;47.998;7.788;2022-11-18T12:29:36;259.77;;;43.60;;
11425;SDS011;5769;47.998;7.788;2022-11-18T12:32:29;260.53;;;43.50;;
11425;SDS011;5769;47.998;7.788;2022-11-18T12:35:02;259.27;;;43.40;;
11425;SDS011;5769;47.998;7.788;2022-11-18T12:37:56;260.67;;;43.53;;
11425;SDS011;5769;47.998;7.788;2022-11-18T12:46:46;259.43;;;43.20;;
11425;SDS011;5769;47.998;7.788;2022-11-18T12:52:53;259.77;;;43.20;;
11425;SDS011;5769;47.998;7.788;2022-11-18T12:55:21;259.40;;;43.30;;
11425;SDS011;5769;47.998;7.788;2022-11-18T12:57:51;261.60;;;43.53;;
11425;SDS011;5769;47.998;7.788;2022-11-18T13:00:27;259.77;;;43.40;;
11425;SDS011;5769;47.998;7.788;2022-11-18T13:03:20;260.23;;;43.37;;
11425;SDS011;5769;47.998;7.788;2022-11-18T13:05:49;263.83;;;43.67;;
11425;SDS011;5769;47.998;7.788;2022-11-18T13:08:26;260.87;;;43.57;;
11425;SDS011;5769;47.998;7.788;2022-11-18T13:10:54;260.13;;;43.57;;
11425;SDS011;5769;47.998;7.788;2022-11-18T13:13:40;256.97;;;43.17;;
11425;SDS011;5769;47.998;7.788;2022-11-18T13:16:13;262.00;;;43.80;;
11425;SDS011;5769;47.998;7.788;2022-11-18T13:19:01;260.67;;;43.57;;
11425;SDS011;5769;47.998;7.788;2022-11-18T13:21:28;260.10;;;43.60;;
11425;SDS011;5769;47.998;7.788;2022-11-18T13:24:14;260.80;;;43.63;;
11425;SDS011;5769;47.998;7.788;2022-11-18T13:26:43;259.33;;;43.33;;
11425;SDS011;5769;47.998;7.788;2022-11-18T13:29:14;258.10;;;43.20;;
11425;SDS011;5769;47.998;7.788;2022-11-18T13:31:51;259.97;;;43.60;;
11425;SDS011;5769;47.998;7.788;2022-11-18T13:34:27;259.07;;;43.60;;
11425;SDS011;5769;47.998;7.788;2022-11-18T13:36:56;261.20;;;43.83;;
11425;SDS011;5769;47.998;7.788;2022-11-18T13:39:26;260.30;;;43.47;;
11425;SDS011;5769;47.998;7.788;2022-11-18T13:41:58;262.27;;;43.57;;
11425;SDS011;5769;47.998;7.788;2022-11-18T13:44:27;259.53;;;43.53;;
11425;SDS011;5769;47.998;7.788;2022-11-18T13:46:57;261.43;;;43.70;;
11425;SDS011;5769;47.998;7.788;2022-11-18T13:49:34;261.07;;;43.77;;
11425;SDS011;5769;47.998;7.788;2022-11-18T13:52:08;260.27;;;43.70;;
11425;SDS011;5769;47.998;7.788;2022-11-18T13:54:40;261.10;;;43.70;;
11425;SDS011;5769;47.998;7.788;2022-11-18T13:57:12;262.60;;;43.73;;
11425;SDS011;5769;47.998;7.788;2022-11-18T13:59:42;259.70;;;43.63;;
11425;SDS011;5769;47.998;7.788;2022-11-18T14:02:10;261.00;;;43.33;;
11425;SDS011;5769;47.998;7.788;2022-11-18T14:04:44;260.20;;;43.67;;
11425;SDS011;5769;47.998;7.788;2022-11-18T14:07:22;259.83;;;43.60;;
11425;SDS011;5769;47.998;7.788;2022-11-18T14:09:53;259.60;;;43.33;;
11425;SDS011;5769;47.998;7.788;2022-11-18T14:12:23;259.03;;;43.50;;
11425;SDS011;5769;47.998;7.788;2022-11-18T14:14:53;259.77;;;43.37;;
11425;SDS011;5769;47.998;7.788;2022-11-18T14:17:38;261.40;;;43.57;;
11425;SDS011;5769;47.998;7.788;2022-11-18T14:20:18;262.77;;;43.70;;
11425;SDS011;5769;47.998;7.788;2022-11-18T14:22:45;260.83;;;43.60;;
11425;SDS011;5769;47.998;7.788;2022-11-18T14:25:19;261.17;;;43.63;;
11425;SDS011;5769;47.998;7.788;2022-11-18T14:27:50;261.63;;;43.60;;
11425;SDS011;5769;47.998;7.788;2022-11-18T14:30:29;261.00;;;43.60;;
11425;SDS011;5769;47.998;7.788;2022-11-18T14:33:08;261.10;;;43.60;;
11425;SDS011;5769;47.998;7.788;2022-11-18T14:35:36;260.70;;;43.57;;
11425;SDS011;5769;47.998;7.788;2022-11-18T14:38:08;260.63;;;43.50;;
11425;SDS011;5769;47.998;7.788;2022-11-18T14:40:41;260.43;;;43.40;;
11425;SDS011;5769;47.998;7.788;2022-11-18T14:43:09;260.53;;;43.57;;
11425;SDS011;5769;47.998;7.788;2022-11-18T14:45:36;262.43;;;43.80;;
11425;SDS011;5769;47.998;7.788;2022-11-18T14:48:04;260.70;;;43.50;;
11425;SDS011;5769;47.998;7.788;2022-11-18T14:50:31;260.30;;;43.33;;
11425;SDS011;5769;47.998;7.788;2022-11-18T14:52:58;260.43;;;43.43;;
11425;SDS011;5769;47.998;7.788;2022-11-18T14:55:25;260.77;;;43.50;;
11425;SDS011;5769;47.998;7.788;2022-11-18T14:57:53;259.83;;;43.33;;
11425;SDS011;5769;47.998;7.788;2022-11-18T15:00:20;260.63;;;43.43;;
11425;SDS011;5769;47.998;7.788;2022-11-18T15:02:46;259.80;;;43.40;;